Time;durP1;ratioP1;P1;durP2;ratioP2;P2;SDS_P1;SDS_P2;PMS_P1;PMS_P2;Temp;Humidity;BMP_temperature;BMP_pressure;BME280_temperature;BME280_humidity;BME280_pressure;Samples;Min_cycle;Max_cycle;Signal;HPM_P1;HPM_P2
2022/01/17 00:00:59;;;;;;;498.43;56.33;;;6.60;99.90;;;;;;6221325;23;20442;-81
2022/01/17 00:03:28;;;;;;;271.10;34.93;;;6.60;99.90;;;;;;6221337;23;20446;-81
2022/01/17 00:05:56;;;;;;;313.07;41.93;;;6.60;99.90;;;;;;6220260;23;20435;-81
2022/01/17 00:08:24;;;;;;;430.47;52.77;;;6.60;99.90;;;;;;6232273;23;20410;-81
2022/01/17 00:10:54;;;;;;;196.50;40.63;;;6.60;99.90;;;;;;6220845;23;20407;-81
2022/01/17 00:13:26;;;;;;;277.57;42.47;;;6.60;99.90;;;;;;6232295;23;20395;-81
2022/01/17 00:15:58;;;;;;;348.57;49.10;;;6.60;99.90;;;;;;6220524;23;20434;-81
2022/01/17 00:18:51;;;;;;;248.57;31.03;;;6.60;99.90;;;;;;6220365;23;20453;-81
2022/01/17 00:21:18;;;;;;;416.37;57.73;;;6.60;99.90;;;;;;6231938;23;20444;-81
2022/01/17 00:23:49;;;;;;;386.43;43.17;;;6.60;99.90;;;;;;6220593;23;20750;-81
2022/01/17 00:26:18;;;;;;;352.60;56.07;;;6.60;99.90;;;;;;6220962;23;20458;-81
2022/01/17 00:28:46;;;;;;;382.73;55.17;;;6.60;99.90;;;;;;6220717;23;20449;-80
2022/01/17 00:31:15;;;;;;;212.40;41.80;;;6.50;99.90;;;;;;6221735;23;20406;-81
2022/01/17 00:33:43;;;;;;;266.47;44.73;;;6.50;99.90;;;;;;6220851;23;20462;-81
2022/01/17 00:36:12;;;;;;;242.70;34.13;;;6.50;99.90;;;;;;6219513;23;20449;-81
2022/01/17 00:38:41;;;;;;;313.20;39.80;;;6.50;99.90;;;;;;6220987;23;20437;-80
2022/01/17 00:41:09;;;;;;;384.30;56.20;;;6.50;99.90;;;;;;6220202;23;20422;-81
2022/01/17 00:43:39;;;;;;;422.47;50.17;;;6.50;99.90;;;;;;6221052;23;20412;-81
2022/01/17 00:46:07;;;;;;;322.83;44.23;;;6.50;99.90;;;;;;6220383;23;20496;-81
2022/01/17 00:48:35;;;;;;;392.70;74.93;;;6.50;99.90;;;;;;6220449;23;20468;-81
2022/01/17 00:51:04;;;;;;;365.43;50.53;;;6.50;99.90;;;;;;6232403;23;20445;-81
2022/01/17 00:53:34;;;;;;;318.13;43.00;;;6.50;99.90;;;;;;6220516;23;20466;-80
2022/01/17 00:56:02;;;;;;;267.03;44.27;;;6.50;99.90;;;;;;6220199;23;20533;-80
2022/01/17 00:58:30;;;;;;;401.03;58.57;;;6.50;99.90;;;;;;6219864;23;20457;-81
2022/01/17 01:01:00;;;;;;;321.70;44.03;;;6.50;99.90;;;;;;6232204;23;20399;-81
2022/01/17 01:03:29;;;;;;;390.60;53.90;;;6.50;99.90;;;;;;6221243;23;20419;-81
2022/01/17 01:05:57;;;;;;;228.00;46.77;;;6.50;99.90;;;;;;6221482;23;20469;-81
2022/01/17 01:08:25;;;;;;;443.97;66.47;;;6.50;99.90;;;;;;6222607;23;20418;-81
2022/01/17 01:10:53;;;;;;;387.10;44.60;;;6.50;99.90;;;;;;6222317;23;20414;-81
2022/01/17 01:13:23;;;;;;;369.93;59.90;;;6.50;99.90;;;;;;6234117;23;20425;-81
2022/01/17 01:16:10;;;;;;;212.20;34.23;;;6.50;99.90;;;;;;6222263;23;20504;-81
2022/01/17 01:19:08;;;;;;;427.87;52.10;;;6.50;99.90;;;;;;6224179;23;20394;-81
2022/01/17 01:21:45;;;;;;;198.43;35.07;;;6.50;99.90;;;;;;6221576;23;20420;-80
2022/01/17 01:29:50;;;;;;;171.90;30.47;;;6.40;99.90;;;;;;6222389;23;20505;-81
2022/01/17 01:32:21;;;;;;;324.73;46.27;;;6.40;99.90;;;;;;6234341;23;20398;-81
2022/01/17 01:34:55;;;;;;;361.57;46.93;;;6.50;99.90;;;;;;6222583;23;20481;-80
2022/01/17 01:37:23;;;;;;;187.47;35.87;;;6.50;99.90;;;;;;6222727;23;20517;-81
2022/01/17 01:39:53;;;;;;;238.57;42.60;;;6.40;99.90;;;;;;6223026;23;20434;-80
2022/01/17 01:42:23;;;;;;;372.27;52.63;;;6.50;99.90;;;;;;6233838;23;20382;-81
2022/01/17 01:44:53;;;;;;;194.77;23.27;;;6.40;99.90;;;;;;6221515;23;20438;-81
2022/01/17 01:47:22;;;;;;;366.27;55.70;;;6.50;99.90;;;;;;6222691;23;20733;-81
2022/01/17 01:49:52;;;;;;;335.73;60.90;;;6.40;99.90;;;;;;6234449;23;20399;-81
2022/01/17 01:52:21;;;;;;;259.83;43.33;;;6.40;99.90;;;;;;6222734;23;20478;-81
2022/01/17 01:54:50;;;;;;;225.83;49.67;;;6.50;99.90;;;;;;6222327;23;20534;-80
2022/01/17 01:57:19;;;;;;;302.53;46.53;;;6.40;99.90;;;;;;6223913;23;20913;-81
2022/01/17 01:59:47;;;;;;;344.07;44.53;;;6.50;99.90;;;;;;6222282;23;20422;-81
2022/01/17 02:02:15;;;;;;;245.33;49.77;;;6.40;99.90;;;;;;6221909;23;20425;-81
2022/01/17 02:04:44;;;;;;;478.73;79.03;;;6.50;99.90;;;;;;6221969;23;20414;-80
2022/01/17 02:07:15;;;;;;;451.57;66.63;;;6.40;99.90;;;;;;6222492;23;20419;-80
2022/01/17 02:09:43;;;;;;;399.93;98.47;;;6.50;99.90;;;;;;6222584;23;20423;-81
2022/01/17 02:12:13;;;;;;;325.03;56.97;;;6.40;99.90;;;;;;6222624;23;20478;-80
2022/01/17 02:14:41;;;;;;;362.43;52.47;;;6.40;99.90;;;;;;6233746;23;20427;-80
2022/01/17 02:17:09;;;;;;;332.63;59.90;;;6.50;99.90;;;;;;6221670;23;20449;-81
2022/01/17 02:19:44;;;;;;;489.23;65.87;;;6.50;99.90;;;;;;6221767;23;20445;-80
2022/01/17 02:22:15;;;;;;;575.63;93.60;;;6.50;99.90;;;;;;6222929;23;20402;-81
2022/01/17 02:24:44;;;;;;;447.20;65.83;;;6.50;99.90;;;;;;6222133;23;20407;-80
2022/01/17 02:27:12;;;;;;;389.77;59.80;;;6.50;99.90;;;;;;6221376;23;20437;-80
2022/01/17 02:29:40;;;;;;;383.03;47.13;;;6.40;99.90;;;;;;6221745;23;20443;-80
2022/01/17 02:32:09;;;;;;;524.30;74.47;;;6.50;99.90;;;;;;6222230;23;20414;-80
2022/01/17 02:34:41;;;;;;;340.50;59.43;;;6.50;99.90;;;;;;6221418;23;20426;-80
2022/01/17 02:37:11;;;;;;;205.37;34.27;;;6.50;99.90;;;;;;6222788;23;20497;-81
2022/01/17 02:39:40;;;;;;;270.33;33.67;;;6.40;99.90;;;;;;6234145;23;20403;-81
2022/01/17 02:42:11;;;;;;;305.33;39.53;;;6.40;99.90;;;;;;6221463;23;20407;-80
2022/01/17 02:44:44;;;;;;;201.47;34.70;;;6.40;99.90;;;;;;6222020;23;20411;-80
2022/01/17 02:47:16;;;;;;;314.80;53.00;;;6.40;99.90;;;;;;6221797;23;20505;-80
2022/01/17 02:49:44;;;;;;;384.50;55.27;;;6.40;99.90;;;;;;6221756;23;20415;-80
2022/01/17 02:52:13;;;;;;;210.00;41.33;;;6.40;99.90;;;;;;6221566;23;20414;-80
2022/01/17 02:54:42;;;;;;;332.57;43.20;;;6.40;99.90;;;;;;6220525;23;20422;-80
2022/01/17 02:57:11;;;;;;;320.07;50.87;;;6.40;99.90;;;;;;6221769;23;20453;-80
2022/01/17 02:59:39;;;;;;;344.90;55.07;;;6.40;99.90;;;;;;6221897;23;20483;-80
2022/01/17 03:02:07;;;;;;;153.43;45.17;;;6.40;99.90;;;;;;6221506;23;20437;-80
2022/01/17 03:04:35;;;;;;;281.27;36.50;;;6.40;99.90;;;;;;6221348;23;20457;-80
2022/01/17 03:07:04;;;;;;;302.07;54.40;;;6.40;99.90;;;;;;6221279;23;20428;-80
2022/01/17 03:09:41;;;;;;;404.50;56.87;;;6.40;99.90;;;;;;6222028;23;20825;-80
2022/01/17 03:12:12;;;;;;;300.97;37.07;;;6.40;99.90;;;;;;6221870;23;20414;-80
2022/01/17 03:14:41;;;;;;;222.30;30.67;;;6.40;99.90;;;;;;6220948;23;20498;-81
2022/01/17 03:17:09;;;;;;;303.47;46.73;;;6.40;99.90;;;;;;6221372;23;20486;-80
2022/01/17 03:19:37;;;;;;;265.73;36.57;;;6.40;99.90;;;;;;6233733;23;20403;-81
2022/01/17 03:22:05;;;;;;;351.53;46.30;;;6.40;99.90;;;;;;6220798;23;20418;-80
2022/01/17 03:24:34;;;;;;;323.17;37.77;;;6.40;99.90;;;;;;6221296;23;20406;-80
2022/01/17 03:27:02;;;;;;;150.43;26.23;;;6.40;99.90;;;;;;6220908;23;20470;-80
2022/01/17 03:29:33;;;;;;;269.20;40.13;;;6.40;99.90;;;;;;6220839;23;20487;-80
2022/01/17 03:32:02;;;;;;;276.33;57.50;;;6.50;99.90;;;;;;6221546;23;20438;-80
2022/01/17 03:34:30;;;;;;;142.67;28.20;;;6.50;99.90;;;;;;6221300;23;20418;-80
2022/01/17 03:36:58;;;;;;;378.30;41.40;;;6.40;99.90;;;;;;6220635;23;20929;-80
2022/01/17 03:39:26;;;;;;;280.67;51.80;;;6.50;99.90;;;;;;6221186;23;20960;-80
2022/01/17 03:41:54;;;;;;;456.23;85.77;;;6.50;99.90;;;;;;6220240;23;20692;-80
2022/01/17 03:44:23;;;;;;;84.87;31.13;;;6.50;99.90;;;;;;6220930;23;20414;-80
2022/01/17 03:46:52;;;;;;;438.77;49.00;;;6.50;99.90;;;;;;6222579;23;20446;-80
2022/01/17 03:49:20;;;;;;;402.10;56.67;;;6.50;99.90;;;;;;6220624;23;20445;-80
2022/01/17 03:51:49;;;;;;;411.60;56.37;;;6.40;99.90;;;;;;6221219;23;20502;-81
2022/01/17 03:54:17;;;;;;;155.53;28.83;;;6.40;99.90;;;;;;6233673;23;20466;-81
2022/01/17 03:56:45;;;;;;;531.90;59.43;;;6.50;99.90;;;;;;6232526;23;20430;-80
2022/01/17 03:59:14;;;;;;;283.47;43.30;;;6.50;99.90;;;;;;6221353;23;20993;-81
2022/01/17 04:01:42;;;;;;;322.47;51.00;;;6.50;99.90;;;;;;6232422;23;20427;-81
2022/01/17 04:04:14;;;;;;;341.87;36.80;;;6.50;99.90;;;;;;6221003;23;20429;-81
2022/01/17 04:06:42;;;;;;;341.00;59.30;;;6.50;99.90;;;;;;6221312;23;20533;-80
2022/01/17 04:09:11;;;;;;;234.23;38.90;;;6.50;99.90;;;;;;6233175;23;20453;-80
2022/01/17 04:11:39;;;;;;;367.17;62.93;;;6.40;99.90;;;;;;6233014;23;20801;-80
2022/01/17 04:14:09;;;;;;;247.63;45.73;;;6.40;99.90;;;;;;6220475;23;20458;-80
2022/01/17 04:16:37;;;;;;;256.00;47.90;;;6.50;99.90;;;;;;6220354;23;20473;-80
2022/01/17 04:19:06;;;;;;;196.50;44.43;;;6.50;99.90;;;;;;6221605;23;20493;-80
2022/01/17 04:21:40;;;;;;;292.20;35.13;;;6.40;99.90;;;;;;6220782;23;20882;-80
2022/01/17 04:24:08;;;;;;;137.73;16.63;;;6.50;99.90;;;;;;6222642;23;20415;-80
2022/01/17 04:26:37;;;;;;;60.60;20.03;;;6.40;99.90;;;;;;6219982;23;20439;-81
2022/01/17 04:29:05;;;;;;;350.97;46.77;;;6.50;99.90;;;;;;6234298;23;20466;-80
2022/01/17 04:31:33;;;;;;;498.80;70.30;;;6.50;99.90;;;;;;6220644;23;20440;-80
2022/01/17 04:34:01;;;;;;;315.47;41.23;;;6.50;99.90;;;;;;6220163;23;20897;-80
2022/01/17 04:36:29;;;;;;;441.57;61.93;;;6.50;99.90;;;;;;6221712;23;20533;-81
2022/01/17 04:38:59;;;;;;;372.17;47.40;;;6.50;99.90;;;;;;6220339;23;20417;-81
2022/01/17 04:41:36;;;;;;;414.40;53.23;;;6.50;99.90;;;;;;6220580;23;20454;-81
2022/01/17 04:45:07;;;;;;;405.70;54.03;;;6.50;99.90;;;;;;6221923;23;20461;-80
2022/01/17 04:46:53;;;;;;;62.03;15.23;;;6.50;99.90;;;;;;6221951;23;20434;-81
2022/01/17 04:49:21;;;;;;;198.83;50.97;;;6.50;99.90;;;;;;6220935;23;20422;-80
2022/01/17 04:51:53;;;;;;;237.63;30.23;;;6.50;99.90;;;;;;6220395;23;20418;-80
2022/01/17 04:54:39;;;;;;;374.20;57.63;;;6.50;99.90;;;;;;6220862;23;20486;-80
2022/01/17 04:57:08;;;;;;;278.10;46.93;;;6.50;99.90;;;;;;6219997;23;20525;-80
2022/01/17 04:59:38;;;;;;;477.53;34.33;;;6.50;99.90;;;;;;6220179;23;20477;-81
2022/01/17 05:02:07;;;;;;;354.50;43.43;;;6.50;99.90;;;;;;6220877;23;20446;-80
2022/01/17 05:04:35;;;;;;;340.47;52.50;;;6.50;99.90;;;;;;6220435;23;20933;-81
2022/01/17 05:07:05;;;;;;;251.80;42.93;;;6.50;99.90;;;;;;6220398;23;20413;-80
2022/01/17 05:09:35;;;;;;;305.90;44.20;;;6.50;99.90;;;;;;6245463;23;20501;-80
2022/01/17 05:12:04;;;;;;;355.73;43.10;;;6.50;99.90;;;;;;6221319;23;20414;-80
2022/01/17 05:14:33;;;;;;;387.17;58.87;;;6.50;99.90;;;;;;6220452;23;20465;-80
2022/01/17 05:17:06;;;;;;;483.80;59.23;;;6.50;99.90;;;;;;6220538;23;20769;-80
2022/01/17 05:19:51;;;;;;;230.17;50.23;;;6.60;99.90;;;;;;6232028;23;20414;-81
2022/01/17 05:22:20;;;;;;;358.53;43.33;;;6.50;99.90;;;;;;6220573;23;20419;-81
2022/01/17 05:24:50;;;;;;;262.03;36.53;;;6.50;99.90;;;;;;6221610;23;20434;-81
2022/01/17 05:27:19;;;;;;;319.83;46.80;;;6.50;99.90;;;;;;6220560;23;20441;-81
2022/01/17 05:29:47;;;;;;;229.40;33.77;;;6.60;99.90;;;;;;6219903;23;20442;-81
2022/01/17 05:32:16;;;;;;;344.07;57.07;;;6.50;99.90;;;;;;6221415;23;20418;-80
2022/01/17 05:34:45;;;;;;;298.93;35.27;;;6.60;99.90;;;;;;6231774;23;20414;-81
2022/01/17 05:37:13;;;;;;;229.77;46.33;;;6.60;99.90;;;;;;6219388;23;20946;-81
2022/01/17 05:39:43;;;;;;;390.73;43.43;;;6.60;99.90;;;;;;6220132;23;20485;-81
2022/01/17 05:42:18;;;;;;;459.33;42.00;;;6.60;99.90;;;;;;6220974;23;20455;-80
2022/01/17 05:44:49;;;;;;;302.27;47.60;;;6.60;99.90;;;;;;6219888;23;20955;-80
2022/01/17 05:47:18;;;;;;;282.47;45.47;;;6.60;99.90;;;;;;6220678;23;20921;-81
2022/01/17 05:49:46;;;;;;;335.13;44.53;;;6.60;99.90;;;;;;6219713;23;20450;-81
2022/01/17 05:52:17;;;;;;;416.80;47.87;;;6.60;99.90;;;;;;6222925;23;20403;-81
2022/01/17 05:54:46;;;;;;;302.63;35.67;;;6.60;99.90;;;;;;6221952;23;20414;-81
2022/01/17 05:57:16;;;;;;;381.37;60.80;;;6.60;99.90;;;;;;6222150;23;20438;-81
2022/01/17 05:59:45;;;;;;;361.93;64.90;;;6.60;99.90;;;;;;6222109;23;20421;-81
2022/01/17 06:02:14;;;;;;;335.13;46.70;;;6.70;99.90;;;;;;6222224;23;20422;-80
2022/01/17 06:04:43;;;;;;;328.27;59.37;;;6.70;99.90;;;;;;6220597;23;20901;-81
2022/01/17 06:07:13;;;;;;;322.73;47.77;;;6.60;99.90;;;;;;6220076;23;20419;-80
2022/01/17 06:09:42;;;;;;;264.30;34.40;;;6.60;99.90;;;;;;6222548;23;20466;-81
2022/01/17 06:12:11;;;;;;;370.43;45.57;;;6.70;99.90;;;;;;6218612;23;20525;-81
2022/01/17 06:14:40;;;;;;;449.70;54.60;;;6.60;99.90;;;;;;6221557;23;20451;-81
2022/01/17 06:17:09;;;;;;;354.90;44.50;;;6.60;99.90;;;;;;6221684;23;20465;-81
2022/01/17 06:19:37;;;;;;;296.23;30.47;;;6.70;99.90;;;;;;6221420;23;20414;-80
2022/01/17 06:22:07;;;;;;;301.40;49.20;;;6.70;99.90;;;;;;6221159;23;20422;-80
2022/01/17 06:24:35;;;;;;;308.67;45.20;;;6.70;99.90;;;;;;6221130;23;20435;-81
2022/01/17 06:27:04;;;;;;;240.07;50.50;;;6.70;99.90;;;;;;6221235;23;20415;-81
2022/01/17 06:29:32;;;;;;;384.03;51.90;;;6.70;99.90;;;;;;6221338;23;20419;-81
2022/01/17 06:32:07;;;;;;;298.70;40.27;;;6.70;99.90;;;;;;6221005;23;20445;-81
2022/01/17 06:35:11;;;;;;;255.07;35.20;;;6.70;99.90;;;;;;6220812;23;20434;-81
2022/01/17 06:37:40;;;;;;;304.17;32.93;;;6.70;99.90;;;;;;6220596;23;20449;-81
2022/01/17 06:40:09;;;;;;;325.87;54.43;;;6.70;99.90;;;;;;6221909;23;20454;-81
2022/01/17 06:42:37;;;;;;;307.90;57.77;;;6.70;99.90;;;;;;6232918;23;20901;-81
2022/01/17 06:45:06;;;;;;;265.33;44.53;;;6.70;99.90;;;;;;6220673;23;20836;-81
2022/01/17 06:47:37;;;;;;;266.60;34.93;;;6.70;99.90;;;;;;6220893;23;20473;-81
2022/01/17 06:50:08;;;;;;;319.43;39.20;;;6.70;99.90;;;;;;6221716;23;20414;-81
2022/01/17 06:52:36;;;;;;;341.20;34.97;;;6.70;99.90;;;;;;6221109;23;20909;-81
2022/01/17 06:55:06;;;;;;;73.93;15.37;;;6.70;99.90;;;;;;6220498;23;20751;-81
2022/01/17 06:57:34;;;;;;;311.53;38.00;;;6.70;99.90;;;;;;6220826;23;20434;-81
2022/01/17 07:00:05;;;;;;;227.70;28.87;;;6.70;99.90;;;;;;6220757;23;20501;-81
2022/01/17 07:02:33;;;;;;;306.17;36.40;;;6.70;99.90;;;;;;6232376;23;20388;-81
2022/01/17 07:05:03;;;;;;;172.50;22.90;;;6.70;99.90;;;;;;6220226;23;20813;-81
2022/01/17 07:07:32;;;;;;;299.83;35.27;;;6.70;99.90;;;;;;6222095;23;20489;-81
2022/01/17 07:10:05;;;;;;;287.43;26.13;;;6.70;99.90;;;;;;6220923;23;20410;-81
2022/01/17 07:12:35;;;;;;;250.93;40.20;;;6.70;99.90;;;;;;6220440;23;20418;-81
2022/01/17 07:15:04;;;;;;;259.70;31.80;;;6.70;99.90;;;;;;6232970;23;20438;-81
2022/01/17 07:17:32;;;;;;;314.53;36.53;;;6.70;99.90;;;;;;6232641;23;20478;-81
2022/01/17 07:20:03;;;;;;;201.40;35.43;;;6.70;99.90;;;;;;6220787;23;20477;-81
2022/01/17 07:22:32;;;;;;;242.10;35.40;;;6.70;99.90;;;;;;6220379;23;20420;-81
2022/01/17 07:25:01;;;;;;;195.97;32.87;;;6.70;99.90;;;;;;6219944;23;20434;-81
2022/01/17 07:27:35;;;;;;;206.03;27.50;;;6.70;99.90;;;;;;6231723;23;20387;-81
2022/01/17 07:30:05;;;;;;;314.33;41.30;;;6.70;99.90;;;;;;6220054;23;20415;-81
2022/01/17 07:32:35;;;;;;;284.73;37.53;;;6.70;99.90;;;;;;6220362;23;20380;-81
2022/01/17 07:35:06;;;;;;;169.23;25.90;;;6.80;99.90;;;;;;6219885;23;20444;-81
2022/01/17 07:37:34;;;;;;;138.87;21.70;;;6.80;99.90;;;;;;6221151;23;20442;-81
2022/01/17 07:40:05;;;;;;;178.30;31.43;;;6.70;99.90;;;;;;6220277;23;20454;-81
2022/01/17 07:42:34;;;;;;;213.57;37.97;;;6.70;99.90;;;;;;6220514;23;20506;-81
2022/01/17 07:45:09;;;;;;;152.40;32.00;;;6.80;99.90;;;;;;6220022;23;20488;-81
2022/01/17 07:47:42;;;;;;;401.20;56.83;;;6.80;99.90;;;;;;6221243;23;20425;-81
2022/01/17 07:50:16;;;;;;;288.17;27.43;;;6.80;99.90;;;;;;6220639;23;20514;-81
2022/01/17 07:52:45;;;;;;;171.87;23.23;;;6.80;99.90;;;;;;6220620;23;20451;-81
2022/01/17 07:55:14;;;;;;;296.50;32.47;;;6.80;99.90;;;;;;6219854;23;20435;-81
2022/01/17 07:57:43;;;;;;;287.03;24.10;;;6.80;99.90;;;;;;6220337;23;20445;-81
2022/01/17 08:00:15;;;;;;;257.40;40.37;;;6.80;99.90;;;;;;6220277;23;20720;-81
2022/01/17 08:02:49;;;;;;;127.57;28.13;;;6.90;99.90;;;;;;6231860;23;20433;-81
2022/01/17 08:05:19;;;;;;;240.40;32.97;;;6.90;99.90;;;;;;6220094;23;20481;-81
2022/01/17 08:07:47;;;;;;;269.43;31.93;;;6.90;99.90;;;;;;6219423;23;20415;-81
2022/01/17 08:10:16;;;;;;;365.17;37.93;;;6.90;99.90;;;;;;6220256;23;20414;-81
2022/01/17 08:12:47;;;;;;;190.87;36.33;;;7.00;99.90;;;;;;6219851;23;20753;-81
2022/01/17 08:15:16;;;;;;;374.03;53.03;;;7.00;99.90;;;;;;6219272;23;20492;-81
2022/01/17 08:17:46;;;;;;;372.00;42.50;;;7.00;99.90;;;;;;6219600;23;20465;-81
2022/01/17 08:20:16;;;;;;;250.87;35.10;;;7.00;99.90;;;;;;6219638;23;20415;-81
2022/01/17 08:22:46;;;;;;;219.10;28.03;;;7.00;99.90;;;;;;6219563;23;20989;-81
2022/01/17 08:25:15;;;;;;;453.30;52.03;;;7.00;99.90;;;;;;6219539;23;20434;-81
2022/01/17 08:27:43;;;;;;;204.97;28.37;;;7.10;99.90;;;;;;6231685;23;20410;-80
2022/01/17 08:30:13;;;;;;;329.77;54.63;;;7.10;99.90;;;;;;6219720;23;20821;-80
2022/01/17 08:33:02;;;;;;;312.20;44.47;;;7.10;99.90;;;;;;6220393;23;20442;-81
2022/01/17 08:35:30;;;;;;;218.87;28.97;;;7.10;99.90;;;;;;6228695;23;20418;-81
2022/01/17 08:38:00;;;;;;;305.27;38.50;;;7.20;99.90;;;;;;6220189;23;20614;-81
2022/01/17 08:40:29;;;;;;;198.33;31.87;;;7.20;99.90;;;;;;6220158;23;20419;-81
2022/01/17 08:42:57;;;;;;;283.40;24.27;;;7.20;99.90;;;;;;6220171;23;20453;-81
2022/01/17 08:45:27;;;;;;;379.83;50.00;;;7.20;99.90;;;;;;6219774;23;20513;-81
2022/01/17 08:48:12;;;;;;;458.53;55.00;;;7.30;99.90;;;;;;6220923;23;20461;-81
2022/01/17 08:50:42;;;;;;;289.43;42.10;;;7.30;99.90;;;;;;6219659;23;20555;-81
2022/01/17 08:53:13;;;;;;;264.80;34.90;;;7.30;99.90;;;;;;6219568;23;20517;-81
2022/01/17 08:55:43;;;;;;;324.47;44.00;;;7.30;99.90;;;;;;6219069;23;20431;-81
2022/01/17 08:58:12;;;;;;;431.47;56.57;;;7.40;99.90;;;;;;6220876;23;20441;-81
2022/01/17 09:00:41;;;;;;;469.93;57.00;;;7.40;99.90;;;;;;6219317;23;20422;-81
2022/01/17 09:03:21;;;;;;;321.67;39.40;;;7.40;99.90;;;;;;6220836;23;20402;-81
2022/01/17 09:05:51;;;;;;;328.93;34.10;;;7.40;99.90;;;;;;6219171;23;20438;-81
2022/01/17 09:08:21;;;;;;;411.10;41.30;;;7.40;99.90;;;;;;6219737;23;20415;-81
2022/01/17 09:10:52;;;;;;;249.93;34.43;;;7.40;99.90;;;;;;6219628;23;20461;-81
2022/01/17 09:13:20;;;;;;;362.37;53.50;;;7.50;99.90;;;;;;6230826;23;20381;-80
2022/01/17 09:15:48;;;;;;;508.70;51.50;;;7.50;99.90;;;;;;6220781;23;20437;-81
2022/01/17 09:18:19;;;;;;;366.07;49.20;;;7.50;99.90;;;;;;6230744;23;20426;-80
2022/01/17 09:20:48;;;;;;;360.40;48.57;;;7.50;99.90;;;;;;6218925;23;20411;-81
2022/01/17 09:23:16;;;;;;;482.63;54.90;;;7.60;99.90;;;;;;6219063;23;20511;-81
2022/01/17 09:25:46;;;;;;;282.03;38.53;;;7.60;99.90;;;;;;6219775;23;20517;-81
2022/01/17 09:28:15;;;;;;;422.20;64.63;;;7.60;99.90;;;;;;6221191;23;20875;-80
2022/01/17 09:30:43;;;;;;;332.87;38.20;;;7.60;99.90;;;;;;6221416;23;20418;-80
2022/01/17 09:33:12;;;;;;;323.43;37.37;;;7.70;99.90;;;;;;6221145;23;20415;-81
2022/01/17 09:35:40;;;;;;;373.30;48.50;;;7.70;99.90;;;;;;6221403;23;20443;-81
2022/01/17 09:38:08;;;;;;;390.67;48.40;;;7.70;99.90;;;;;;6221108;23;20423;-81
2022/01/17 09:40:37;;;;;;;387.10;55.47;;;7.70;99.90;;;;;;6220739;23;20502;-81
2022/01/17 09:43:26;;;;;;;252.17;47.37;;;7.80;99.90;;;;;;6220562;23;20484;-81
2022/01/17 09:45:56;;;;;;;328.83;33.27;;;7.80;99.90;;;;;;6222683;23;20455;-81
2022/01/17 09:48:34;;;;;;;312.60;59.37;;;7.80;99.90;;;;;;6222290;23;20399;-81
2022/01/17 09:51:15;;;;;;;388.73;61.53;;;7.80;99.90;;;;;;6222071;23;20397;-81
2022/01/17 09:53:45;;;;;;;255.53;36.23;;;7.80;99.90;;;;;;6220953;23;20901;-81
2022/01/17 09:56:14;;;;;;;289.23;39.57;;;7.80;99.90;;;;;;6222649;23;20930;-81
2022/01/17 09:58:45;;;;;;;213.03;37.53;;;7.80;99.90;;;;;;6221529;23;20521;-81
2022/01/17 10:01:13;;;;;;;246.77;37.43;;;7.80;99.90;;;;;;6233570;23;20383;-81
2022/01/17 10:03:46;;;;;;;306.17;44.83;;;7.80;99.90;;;;;;6232745;23;20847;-81
2022/01/17 10:06:14;;;;;;;386.93;40.90;;;7.90;99.90;;;;;;6220990;23;20439;-81
2022/01/17 10:08:43;;;;;;;296.23;45.57;;;7.90;99.90;;;;;;6221135;23;20415;-80
2022/01/17 10:11:15;;;;;;;430.17;49.20;;;7.90;99.90;;;;;;6221484;23;20986;-80
2022/01/17 10:13:47;;;;;;;109.53;20.23;;;7.90;99.90;;;;;;6232953;23;20753;-81
2022/01/17 10:16:18;;;;;;;476.93;54.07;;;7.90;99.90;;;;;;6222997;23;20438;-81
2022/01/17 10:18:49;;;;;;;329.83;56.03;;;7.90;99.90;;;;;;6221091;23;20548;-81
2022/01/17 10:21:30;;;;;;;303.60;47.03;;;7.90;99.90;;;;;;6233094;23;20383;-81
2022/01/17 10:35:22;;;;;;;410.53;52.47;;;8.00;99.90;;;;;;6220254;23;20446;-80
2022/01/17 10:38:04;;;;;;;326.43;58.37;;;8.00;99.90;;;;;;6219558;23;20506;-81
2022/01/17 10:40:35;;;;;;;432.87;52.83;;;8.00;99.90;;;;;;6220877;23;20428;-81
2022/01/17 10:43:05;;;;;;;227.57;44.53;;;8.00;99.90;;;;;;6220754;23;20408;-81
2022/01/17 10:45:42;;;;;;;385.97;55.03;;;8.10;99.90;;;;;;6220654;23;20443;-81
2022/01/17 10:48:10;;;;;;;479.33;55.77;;;8.10;99.90;;;;;;6220959;23;20415;-81
2022/01/17 10:50:41;;;;;;;870.20;53.17;;;8.10;99.90;;;;;;6221001;23;20420;-81
2022/01/17 10:53:11;;;;;;;245.87;35.97;;;8.10;99.90;;;;;;6222902;23;20733;-80
2022/01/17 10:55:41;;;;;;;335.23;44.57;;;8.20;99.90;;;;;;6220297;23;20973;-80
2022/01/17 10:58:12;;;;;;;465.50;58.07;;;8.20;99.90;;;;;;6222136;23;20396;-81
2022/01/17 11:00:44;;;;;;;301.40;44.57;;;8.20;99.90;;;;;;6231464;23;20417;-81
2022/01/17 11:03:14;;;;;;;286.67;40.10;;;8.20;99.90;;;;;;6220184;23;20444;-80
2022/01/17 11:05:45;;;;;;;371.53;37.00;;;8.20;99.90;;;;;;6220178;23;20440;-80
2022/01/17 11:08:16;;;;;;;232.50;37.77;;;8.30;99.90;;;;;;6221623;23;20409;-81
2022/01/17 11:10:47;;;;;;;235.83;35.70;;;8.30;99.90;;;;;;6222915;23;20420;-81
2022/01/17 11:13:17;;;;;;;207.83;33.73;;;8.30;99.90;;;;;;6219330;23;20415;-80
2022/01/17 11:15:52;;;;;;;418.70;68.13;;;8.30;99.90;;;;;;6221264;23;20445;-81
2022/01/17 11:18:24;;;;;;;482.77;69.50;;;8.40;99.90;;;;;;6220143;23;20406;-80
2022/01/17 11:20:55;;;;;;;146.97;26.77;;;8.40;99.90;;;;;;6232837;23;20466;-80
2022/01/17 11:23:24;;;;;;;512.73;72.70;;;8.40;99.90;;;;;;6231893;23;20854;-80
2022/01/17 11:25:55;;;;;;;475.30;51.43;;;8.40;99.90;;;;;;6220271;23;20447;-81
2022/01/17 11:28:25;;;;;;;163.03;17.40;;;8.50;99.90;;;;;;6219052;23;20758;-80
2022/01/17 11:30:58;;;;;;;366.70;48.87;;;8.50;99.90;;;;;;6219518;23;20512;-80
2022/01/17 11:33:27;;;;;;;253.90;36.20;;;8.40;99.90;;;;;;6219389;23;20406;-80
2022/01/17 11:35:56;;;;;;;238.03;42.13;;;8.40;99.90;;;;;;6219226;23;20524;-80
2022/01/17 11:38:27;;;;;;;301.30;52.00;;;8.40;99.90;;;;;;6219765;23;20410;-80
2022/01/17 11:40:59;;;;;;;281.43;47.93;;;8.40;99.90;;;;;;6219891;23;20490;-80
2022/01/17 11:43:34;;;;;;;260.33;42.80;;;8.40;99.90;;;;;;6221187;23;20495;-80
2022/01/17 11:46:24;;;;;;;348.13;34.77;;;8.40;99.90;;;;;;6220767;23;20523;-80
2022/01/17 11:48:53;;;;;;;325.57;40.50;;;8.40;99.90;;;;;;6219552;23;20400;-81
2022/01/17 11:51:22;;;;;;;136.30;23.93;;;8.40;99.90;;;;;;6219065;23;20423;-81
2022/01/17 11:53:54;;;;;;;1999.77;139.77;;;8.40;99.90;;;;;;6219327;23;20897;-81
2022/01/17 11:56:42;;;;;;;238.80;44.80;;;8.40;99.90;;;;;;6220097;23;20467;-81
2022/01/17 11:59:25;;;;;;;109.70;29.20;;;8.30;99.90;;;;;;6219972;23;20413;-81
2022/01/17 12:02:21;;;;;;;379.10;51.07;;;8.30;99.90;;;;;;6219833;23;20713;-81
2022/01/17 12:05:35;;;;;;;1038.00;78.00;;;8.30;99.90;;;;;;6219929;23;20494;-81
2022/01/17 12:08:09;;;;;;;363.10;42.73;;;8.30;99.90;;;;;;6220065;23;20405;-81
2022/01/17 12:10:44;;;;;;;256.97;34.57;;;8.30;99.90;;;;;;6219288;23;20508;-81
2022/01/17 12:13:45;;;;;;;370.33;48.30;;;8.30;99.90;;;;;;6219689;23;20407;-81
2022/01/17 12:16:19;;;;;;;365.00;43.20;;;8.30;99.90;;;;;;6219784;23;20449;-81
2022/01/17 12:19:00;;;;;;;317.03;52.20;;;8.30;99.90;;;;;;6219405;23;20517;-81
2022/01/17 12:21:34;;;;;;;426.47;57.00;;;8.30;99.90;;;;;;6218830;23;20459;-81
2022/01/17 12:24:47;;;;;;;236.87;53.83;;;8.30;99.90;;;;;;6219453;23;20406;-81
2022/01/17 12:27:19;;;;;;;416.33;51.90;;;8.30;99.90;;;;;;6219538;23;20409;-80
2022/01/17 12:29:52;;;;;;;548.20;66.90;;;8.30;99.90;;;;;;6219170;23;20715;-81
2022/01/17 12:32:48;;;;;;;531.40;64.77;;;8.30;99.90;;;;;;6220043;23;20411;-81
2022/01/17 12:35:21;;;;;;;447.17;59.43;;;8.30;99.90;;;;;;6219582;23;20479;-81
2022/01/17 12:37:53;;;;;;;354.07;47.33;;;8.20;99.90;;;;;;6221582;23;20430;-81
2022/01/17 12:40:24;;;;;;;423.93;47.73;;;8.30;99.90;;;;;;6219349;23;20579;-80
2022/01/17 12:42:58;;;;;;;366.03;42.17;;;8.30;99.90;;;;;;6219309;23;20411;-81
2022/01/17 12:45:31;;;;;;;393.80;60.30;;;8.30;99.90;;;;;;6219623;23;20529;-81
2022/01/17 12:48:02;;;;;;;533.90;79.13;;;8.30;99.90;;;;;;6219735;23;20416;-81
2022/01/17 12:50:34;;;;;;;588.73;54.00;;;8.30;99.90;;;;;;6231451;23;20393;-81
2022/01/17 12:53:04;;;;;;;404.47;40.93;;;8.30;99.90;;;;;;6221246;23;20866;-81
2022/01/17 12:55:37;;;;;;;413.33;70.10;;;8.30;99.90;;;;;;6219503;23;20440;-81
2022/01/17 12:58:13;;;;;;;271.47;43.53;;;8.30;99.90;;;;;;6221206;23;20398;-81
2022/01/17 13:00:45;;;;;;;121.03;16.20;;;8.30;99.90;;;;;;6219289;23;20435;-80
2022/01/17 13:03:15;;;;;;;432.60;64.70;;;8.30;99.90;;;;;;6223018;23;20754;-81
2022/01/17 13:05:45;;;;;;;75.60;23.87;;;8.30;99.90;;;;;;6220977;23;20496;-80